Weather at Easterton Glider Field

Public forecast

Using degrees Celsius for public forecast. Weather courtesy of forecast.io.

Closest aviation weather report (METAR) to Easterton Glider Field

Closest report is RAF Lossiemouth, 7.1 nm (13.2 km) N. Retrieved 2021/07/28 01:33 UTC (18 minutes ago):

EGQS 280133Z 09008KT 2000 BR BKN002 OVC027 16/16 Q1003 RMK AMB

Closest aviation forecast (TAF) to Easterton Glider Field

Closest forecast is RAF Lossiemouth, 7.1 nm (13.2 km) N. Retrieved 2021-07-28 03:51 UTC (0 seconds ago):

TAF TAF EGQS 280141Z 2803/2821 08010KT 9999 BKN030 PROB30 TEMPO 2803/2809 VRB15G25KT 1500 +TSRA BR SCT002 BKN020CB TEMPO 2809/2821 4000 +SHRA SCT006 BKN010CB PROB30 2815/2821 1500 BR VCFG BKN002